createdAt,value
2019-04-22T00:01:25.268Z,9.38
2019-04-22T00:04:00.276Z,8.85
2019-04-22T00:06:44.312Z,9.05
2019-04-22T00:09:19.127Z,8.70
2019-04-22T00:11:53.112Z,9.03
2019-04-22T00:14:24.906Z,8.90
2019-04-22T00:17:00.764Z,9.03
2019-04-22T00:19:47.033Z,9.73
2019-04-22T00:22:03.311Z,9.48
2019-04-22T00:24:30.767Z,9.78
2019-04-22T00:27:03.919Z,10.23
2019-04-22T00:29:50.087Z,10.50
2019-04-22T00:32:04.965Z,10.65
2019-04-22T00:34:42.667Z,11.50
2019-04-22T00:37:17.230Z,11.93
2019-04-22T00:39:46.401Z,11.90
2019-04-22T00:42:24.652Z,11.90
2019-04-22T00:44:51.768Z,11.10
2019-04-22T00:47:29.080Z,10.88
2019-04-22T00:50:12.679Z,11.30
2019-04-22T00:52:22.354Z,11.70
2019-04-22T00:55:04.154Z,11.12
2019-04-22T00:57:29.611Z,11.53
2019-04-22T00:59:58.583Z,11.83
2019-04-22T01:02:34.200Z,12.15
2019-04-22T01:05:01.304Z,12.15
2019-04-22T01:07:30.400Z,11.38
2019-04-22T01:10:06.671Z,11.10
2019-04-22T01:12:39.532Z,11.88
2019-04-22T01:15:07.073Z,11.60
2019-04-22T01:17:39.947Z,12.43
2019-04-22T01:20:17.575Z,10.90
2019-04-22T01:22:38.252Z,11.70
2019-04-22T01:25:09.775Z,11.03
2019-04-22T01:27:41.844Z,11.30
2019-04-22T01:30:08.433Z,10.68
2019-04-22T01:32:32.818Z,10.90
2019-04-22T01:35:14.328Z,11.12
2019-04-22T01:37:52.579Z,11.15
2019-04-22T01:40:32.864Z,10.90
2019-04-22T01:43:03.824Z,10.72
2019-04-22T01:45:36.313Z,11.12
2019-04-22T01:47:55.380Z,11.18
2019-04-22T01:50:30.671Z,11.50
2019-04-22T01:53:06.256Z,11.05
2019-04-22T01:55:41.838Z,10.53
2019-04-22T01:58:00.109Z,10.90
2019-04-22T02:00:39.602Z,10.90
2019-04-22T02:03:12.724Z,11.35
2019-04-22T02:05:37.623Z,10.78
2019-04-22T02:08:16.620Z,11.25
2019-04-22T02:10:49.349Z,10.30
2019-04-22T02:13:17.101Z,10.25
2019-04-22T02:15:47.767Z,10.35
2019-04-22T02:20:48.600Z,10.00
2019-04-22T02:26:03.829Z,9.78
2019-04-22T02:34:01.833Z,10.40
2019-04-22T02:36:22.738Z,10.45
2019-04-22T02:41:23.014Z,10.48
2019-04-22T02:59:09.583Z,10.63
2019-04-22T03:01:33.120Z,10.32
2019-04-22T03:04:06.902Z,10.78
2019-04-22T03:06:32.853Z,10.30
2019-04-22T03:09:08.911Z,10.45
2019-04-22T03:14:01.430Z,10.88
2019-04-22T03:16:41.261Z,10.88
2019-04-22T03:19:29.885Z,10.55
2019-04-22T03:21:31.760Z,9.80
2019-04-22T03:24:17.497Z,10.70
2019-04-22T03:29:04.883Z,10.43
2019-04-22T03:42:05.721Z,9.80
2019-04-22T03:47:10.970Z,10.68
2019-04-22T03:54:45.771Z,10.50
2019-04-22T04:02:17.828Z,9.88
2019-04-22T04:04:39.303Z,9.98
2019-04-22T04:07:20.749Z,9.78
2019-04-22T04:12:13.935Z,9.78
2019-04-22T04:17:23.159Z,10.70
2019-04-22T04:22:32.308Z,10.10
2019-04-22T04:30:14.898Z,9.80
2019-04-22T04:37:42.378Z,10.23
2019-04-22T04:47:44.181Z,10.20
2019-04-22T04:53:01.878Z,9.65
2019-04-22T04:55:17.682Z,10.08
2019-04-22T04:57:43.538Z,9.43
2019-04-22T05:02:44.615Z,9.38
2019-04-22T05:05:12.801Z,9.78
2019-04-22T05:07:40.933Z,9.30
2019-04-22T05:12:53.554Z,9.40
2019-04-22T05:20:27.329Z,9.58
2019-04-22T05:22:46.094Z,9.08
2019-04-22T05:25:28.491Z,9.85
2019-04-22T05:27:45.434Z,9.23
2019-04-22T05:32:49.155Z,8.78
2019-04-22T05:35:23.147Z,8.45
2019-04-22T05:37:56.516Z,8.88
2019-04-22T05:40:24.316Z,7.97
2019-04-22T05:42:55.996Z,7.97
2019-04-22T05:47:57.855Z,8.05
2019-04-22T05:50:27.001Z,8.18
2019-04-22T05:52:57.305Z,8.15
2019-04-22T05:58:07.183Z,8.08
2019-04-22T06:03:12.350Z,7.58
2019-04-22T06:05:35.930Z,7.70
2019-04-22T06:08:13.341Z,8.15
2019-04-22T06:10:45.639Z,7.75
2019-04-22T06:13:11.170Z,7.58
2019-04-22T06:15:38.926Z,7.75
2019-04-22T06:18:25.588Z,7.22
2019-04-22T06:20:59.451Z,7.40
2019-04-22T06:23:26.211Z,7.00
2019-04-22T06:31:03.677Z,6.28
2019-04-22T06:33:34.661Z,6.37
2019-04-22T06:36:03.703Z,6.00
2019-04-22T06:38:35.646Z,6.35
2019-04-22T06:41:08.976Z,5.83
2019-04-22T06:46:08.405Z,5.72
2019-04-22T06:48:49.136Z,5.80
2019-04-22T06:51:17.483Z,6.15
2019-04-22T06:53:41.141Z,6.08
2019-04-22T06:56:16.172Z,5.50
2019-04-22T06:58:50.611Z,5.90
2019-04-22T07:03:53.506Z,5.95
2019-04-22T07:06:23.990Z,5.42
2019-04-22T07:09:13.930Z,5.60
2019-04-22T07:11:19.850Z,5.65
2019-04-22T07:13:57.095Z,6.08
2019-04-22T07:16:25.092Z,5.80
2019-04-22T07:18:56.863Z,6.10
2019-04-22T07:21:27.455Z,5.83
2019-04-22T07:24:17.844Z,5.60
2019-04-22T07:26:25.247Z,5.80
2019-04-22T07:28:58.213Z,5.50
2019-04-22T07:31:28.604Z,5.40
2019-04-22T07:34:08.128Z,5.42
2019-04-22T07:36:45.574Z,5.30
2019-04-22T07:39:05.563Z,5.05
2019-04-22T07:41:39.985Z,5.15
2019-04-22T07:44:13.417Z,5.30
2019-04-22T07:46:41.503Z,4.75
2019-04-22T07:49:16.593Z,5.53
2019-04-22T07:54:16.421Z,5.12
2019-04-22T07:56:43.942Z,5.45
2019-04-22T07:59:18.703Z,5.72
2019-04-22T08:01:41.824Z,5.20
2019-04-22T08:04:23.183Z,6.37
2019-04-22T08:06:51.569Z,5.45
2019-04-22T08:14:22.471Z,4.90
2019-04-22T08:17:00.998Z,5.33
2019-04-22T08:21:59.860Z,5.20
2019-04-22T08:24:29.301Z,5.00
2019-04-22T08:26:59.316Z,5.67
2019-04-22T08:29:37.188Z,5.30
2019-04-22T08:32:02.723Z,5.50
2019-04-22T08:34:32.081Z,5.30
2019-04-22T08:37:37.081Z,5.80
2019-04-22T08:39:34.536Z,5.80
2019-04-22T08:42:13.667Z,5.67
2019-04-22T08:49:50.175Z,6.47
2019-04-22T08:52:16.510Z,6.03
2019-04-22T08:54:44.992Z,6.20
2019-04-22T08:57:18.272Z,5.78
2019-04-22T08:59:48.655Z,5.70
2019-04-22T09:02:20.480Z,5.80
2019-04-22T09:04:52.156Z,5.75
2019-04-22T09:07:28.313Z,5.60
2019-04-22T09:09:50.658Z,5.42
2019-04-22T09:12:26.511Z,5.33
2019-04-22T09:15:03.944Z,5.15
2019-04-22T09:19:54.578Z,5.17
2019-04-22T09:22:24.753Z,5.10
2019-04-22T09:24:57.279Z,5.12
2019-04-22T09:27:37.002Z,4.85
2019-04-22T09:29:59.685Z,5.50
2019-04-22T09:32:34.842Z,5.30
2019-04-22T09:35:03.441Z,5.35
2019-04-22T09:37:40.767Z,5.50
2019-04-22T09:40:15.623Z,4.78
2019-04-22T09:42:48.736Z,5.30
2019-04-22T09:45:10.167Z,5.22
2019-04-22T09:47:49.096Z,5.60
2019-04-22T09:50:16.001Z,5.78
2019-04-22T09:52:48.909Z,6.10
2019-04-22T09:55:18.237Z,5.80
2019-04-22T09:57:46.050Z,5.50
2019-04-22T10:00:13.949Z,5.55
2019-04-22T10:02:55.421Z,5.53
2019-04-22T10:05:21.167Z,5.22
2019-04-22T10:07:54.492Z,6.08
2019-04-22T10:10:18.877Z,5.67
2019-04-22T10:12:54.092Z,5.50
2019-04-22T10:15:26.724Z,5.37
2019-04-22T10:18:02.890Z,5.62
2019-04-22T10:20:36.352Z,6.08
2019-04-22T10:23:05.620Z,6.53
2019-04-22T10:25:35.143Z,5.83
2019-04-22T10:28:15.080Z,6.08
2019-04-22T10:30:48.869Z,5.80
2019-04-22T10:33:05.775Z,6.00
2019-04-22T10:35:20.962Z,5.90
2019-04-22T10:37:50.238Z,5.87
2019-04-22T10:40:29.120Z,6.17
2019-04-22T10:42:59.126Z,6.10
2019-04-22T10:45:30.241Z,6.22
2019-04-22T10:48:01.438Z,5.70
2019-04-22T10:50:39.702Z,5.75
2019-04-22T10:53:11.181Z,6.05
2019-04-22T10:55:43.430Z,5.75
2019-04-22T10:58:12.999Z,5.67
2019-04-22T11:00:45.198Z,5.70
2019-04-22T11:03:16.252Z,5.85
2019-04-22T11:05:46.346Z,6.00
2019-04-22T11:08:26.068Z,5.70
2019-04-22T11:11:00.638Z,5.70
2019-04-22T11:13:20.130Z,5.65
2019-04-22T11:15:52.941Z,5.25
2019-04-22T11:18:23.234Z,6.00
2019-04-22T11:20:53.578Z,6.20
2019-04-22T11:23:24.595Z,5.62
2019-04-22T11:25:54.263Z,5.90
2019-04-22T11:28:23.803Z,6.10
2019-04-22T11:30:54.840Z,5.90
2019-04-22T11:33:24.693Z,5.67
2019-04-22T11:35:55.499Z,5.72
2019-04-22T11:38:25.138Z,6.40
2019-04-22T11:40:57.472Z,5.80
2019-04-22T11:43:28.342Z,5.83
2019-04-22T11:45:59.649Z,5.65
2019-04-22T11:48:29.400Z,5.90
2019-04-22T11:51:00.129Z,4.95
2019-04-22T11:53:30.934Z,5.33
2019-04-22T11:56:00.694Z,5.20
2019-04-22T11:58:30.759Z,5.53
2019-04-22T12:01:01.163Z,5.33
2019-04-22T12:03:31.661Z,5.03
2019-04-22T12:06:02.095Z,5.05
2019-04-22T12:08:31.692Z,4.42
2019-04-22T12:11:04.373Z,5.05
2019-04-22T12:13:33.708Z,5.22
2019-04-22T12:16:03.466Z,4.58
2019-04-22T12:18:33.351Z,4.78
2019-04-22T12:21:03.548Z,4.25
2019-04-22T12:23:34.847Z,4.72
2019-04-22T12:26:10.872Z,4.40
2019-04-22T12:28:37.053Z,4.60
2019-04-22T12:31:06.928Z,4.30
2019-04-22T12:33:37.122Z,4.83
2019-04-22T12:36:08.638Z,4.10
2019-04-22T12:38:39.770Z,4.10
2019-04-22T12:41:11.999Z,3.75
2019-04-22T12:43:41.072Z,4.17
2019-04-22T12:46:12.076Z,4.28
2019-04-22T12:48:43.245Z,4.05
2019-04-22T12:51:13.275Z,3.70
2019-04-22T12:53:44.558Z,3.77
2019-04-22T12:56:15.419Z,3.60
2019-04-22T12:58:45.792Z,3.20
2019-04-22T13:01:15.408Z,3.37
2019-04-22T13:03:46.484Z,3.20
2019-04-22T13:06:17.604Z,3.25
2019-04-22T13:08:47.773Z,3.67
2019-04-22T13:11:21.356Z,3.70
2019-04-22T13:13:49.368Z,3.40
2019-04-22T13:16:20.594Z,3.00
2019-04-22T13:18:57.608Z,3.20
2019-04-22T13:21:22.756Z,2.60
2019-04-22T13:23:53.109Z,3.10
2019-04-22T13:26:23.154Z,3.10
2019-04-22T13:28:54.754Z,3.20
2019-04-22T13:31:24.531Z,3.00
2019-04-22T13:33:57.200Z,2.95
2019-04-22T13:36:27.670Z,2.95
2019-04-22T13:38:58.604Z,3.20
2019-04-22T13:41:39.794Z,3.45
2019-04-22T13:44:01.838Z,3.90
2019-04-22T13:46:33.621Z,3.55
2019-04-22T13:49:37.796Z,3.52
2019-04-22T13:52:02.398Z,4.33
2019-04-22T13:56:55.403Z,3.70
2019-04-22T13:59:18.313Z,3.40
2019-04-22T14:01:46.412Z,3.62
2019-04-22T14:04:20.584Z,3.30
2019-04-22T14:06:50.158Z,3.27
2019-04-22T14:09:20.439Z,2.98
2019-04-22T14:11:57.785Z,2.90
2019-04-22T14:14:22.139Z,3.60
2019-04-22T14:16:53.212Z,3.30
2019-04-22T14:19:23.749Z,3.50
2019-04-22T14:21:53.772Z,3.42
2019-04-22T14:24:23.769Z,4.12
2019-04-22T14:27:08.738Z,3.77
2019-04-22T14:29:25.860Z,3.60
2019-04-22T14:32:06.960Z,3.42
2019-04-22T14:34:28.377Z,3.30
2019-04-22T14:36:59.308Z,3.58
2019-04-22T14:39:30.220Z,3.45
2019-04-22T14:42:20.407Z,3.20
2019-04-22T14:45:18.839Z,3.05
2019-04-22T14:47:26.373Z,3.30
2019-04-22T14:49:55.990Z,3.20
2019-04-22T14:52:31.439Z,2.90
2019-04-22T14:54:50.813Z,3.30
2019-04-22T14:57:07.469Z,3.20
2019-04-22T14:59:37.780Z,3.33
2019-04-22T15:02:07.660Z,3.25
2019-04-22T15:04:39.289Z,3.00
2019-04-22T15:07:08.978Z,2.83
2019-04-22T15:09:39.900Z,2.85
2019-04-22T15:12:18.571Z,3.27
2019-04-22T15:14:41.683Z,2.98
2019-04-22T15:17:13.121Z,2.70
2019-04-22T15:19:45.573Z,2.62
2019-04-22T15:22:16.767Z,2.67
2019-04-22T15:24:46.978Z,3.15
2019-04-22T15:27:16.465Z,2.90
2019-04-22T15:29:47.330Z,2.80
2019-04-22T15:32:17.623Z,2.60
2019-04-22T15:34:47.208Z,2.50
2019-04-22T15:37:17.826Z,2.30
2019-04-22T15:39:47.919Z,2.45
2019-04-22T15:42:22.840Z,2.72
2019-04-22T15:44:51.577Z,2.40
2019-04-22T15:47:22.858Z,2.30
2019-04-22T15:49:53.903Z,2.10
2019-04-22T15:52:33.312Z,2.80
2019-04-22T15:54:56.298Z,2.10
2019-04-22T15:57:26.653Z,2.05
2019-04-22T16:00:12.089Z,2.22
2019-04-22T16:02:27.919Z,2.17
2019-04-22T16:04:58.805Z,2.50
2019-04-22T16:07:29.742Z,2.10
2019-04-22T16:09:59.669Z,2.20
2019-04-22T16:12:37.699Z,2.47
2019-04-22T16:15:03.091Z,2.40
2019-04-22T16:17:32.789Z,2.42
2019-04-22T16:20:03.693Z,2.25
2019-04-22T16:22:36.986Z,2.40
2019-04-22T16:25:11.281Z,2.02
2019-04-22T16:27:42.611Z,2.37
2019-04-22T16:30:13.298Z,1.95
2019-04-22T16:32:43.522Z,2.12
2019-04-22T16:35:14.515Z,2.17
2019-04-22T16:37:44.362Z,2.20
2019-04-22T16:40:14.682Z,2.30
2019-04-22T16:42:52.771Z,2.45
2019-04-22T16:45:19.869Z,2.30
2019-04-22T16:47:49.567Z,2.33
2019-04-22T16:50:20.640Z,2.55
2019-04-22T16:52:50.317Z,2.62
2019-04-22T16:55:21.066Z,2.60
2019-04-22T16:57:50.628Z,2.55
2019-04-22T17:00:20.664Z,2.45
2019-04-22T17:03:08.790Z,2.65
2019-04-22T17:05:56.846Z,2.70
2019-04-22T17:08:26.708Z,2.77
2019-04-22T17:10:56.153Z,2.87
2019-04-22T17:13:30.260Z,2.72
2019-04-22T17:15:59.075Z,2.65
2019-04-22T17:18:28.086Z,2.80
2019-04-22T17:20:58.476Z,2.90
2019-04-22T17:23:29.564Z,2.83
2019-04-22T17:26:00.666Z,2.90
2019-04-22T17:28:31.287Z,3.02
2019-04-22T17:31:01.903Z,3.05
2019-04-22T17:33:32.713Z,3.02
2019-04-22T17:36:03.346Z,3.40
2019-04-22T17:38:42.828Z,3.00
2019-04-22T17:41:17.219Z,3.30
2019-04-22T17:43:59.204Z,3.25
2019-04-22T17:46:32.407Z,3.30
2019-04-22T17:49:26.718Z,3.08
2019-04-22T17:52:15.670Z,3.65
2019-04-22T17:54:43.052Z,3.00
2019-04-22T17:57:12.331Z,3.20
2019-04-22T17:59:45.211Z,3.10
2019-04-22T18:02:13.385Z,3.12
2019-04-22T18:04:33.943Z,2.62
2019-04-22T18:07:24.830Z,2.58
2019-04-22T18:10:16.227Z,2.70
2019-04-22T18:12:27.238Z,2.80
2019-04-22T18:14:59.518Z,2.50
2019-04-22T18:17:25.428Z,2.70
2019-04-22T18:19:51.818Z,3.00
2019-04-22T18:22:19.821Z,2.65
2019-04-22T18:24:54.137Z,3.17
2019-04-22T18:27:40.196Z,2.67
2019-04-22T18:29:55.793Z,3.55
2019-04-22T18:32:25.679Z,2.72
2019-04-22T18:34:53.133Z,3.35
2019-04-22T18:37:37.877Z,3.17
2019-04-22T18:40:02.228Z,3.10
2019-04-22T18:42:34.841Z,3.12
2019-04-22T18:45:26.043Z,3.17
2019-04-22T18:47:38.730Z,3.30
2019-04-22T18:50:08.610Z,2.98
2019-04-22T18:53:15.989Z,3.27
2019-04-22T18:55:38.831Z,2.83
2019-04-22T19:00:52.735Z,2.90
2019-04-22T19:03:27.719Z,2.75
2019-04-22T19:06:27.585Z,3.10
2019-04-22T19:08:55.673Z,3.12
2019-04-22T19:11:16.607Z,3.00
2019-04-22T19:14:03.748Z,3.27
2019-04-22T19:16:31.023Z,3.00
2019-04-22T19:19:18.418Z,2.95
2019-04-22T19:21:44.517Z,3.45
2019-04-22T19:23:54.345Z,3.35
2019-04-22T19:26:41.001Z,3.40
2019-04-22T19:29:03.817Z,3.17
2019-04-22T19:31:28.551Z,3.27
2019-04-22T19:34:03.017Z,3.47
2019-04-22T19:36:40.918Z,3.58
2019-04-22T19:39:08.011Z,3.65
2019-04-22T19:41:45.431Z,4.03
2019-04-22T19:44:13.223Z,3.92
2019-04-22T19:46:55.745Z,4.40
2019-04-22T19:49:29.118Z,4.58
2019-04-22T19:51:57.287Z,4.10
2019-04-22T19:54:19.248Z,4.53
2019-04-22T19:56:40.323Z,4.35
2019-04-22T19:59:14.958Z,4.40
2019-04-22T20:01:55.359Z,4.33
2019-04-22T20:04:37.711Z,4.17
2019-04-22T20:07:06.680Z,4.20
2019-04-22T20:09:46.754Z,4.62
2019-04-22T20:12:04.283Z,4.90
2019-04-22T20:14:41.513Z,4.15
2019-04-22T20:17:09.628Z,4.45
2019-04-22T20:19:50.189Z,4.47
2019-04-22T20:22:12.797Z,5.17
2019-04-22T20:24:29.170Z,4.95
2019-04-22T20:27:20.315Z,5.25
2019-04-22T20:29:49.532Z,5.20
2019-04-22T20:32:23.404Z,5.62
2019-04-22T20:34:59.580Z,5.20
2019-04-22T20:37:33.276Z,5.70
2019-04-22T20:39:53.552Z,6.20
2019-04-22T20:42:38.711Z,6.25
2019-04-22T20:44:57.075Z,7.15
2019-04-22T20:47:23.734Z,7.67
2019-04-22T20:50:04.520Z,7.55
2019-04-22T20:52:38.699Z,7.28
2019-04-22T20:54:58.387Z,7.55
2019-04-22T20:57:34.721Z,7.35
2019-04-22T21:00:02.477Z,7.85
2019-04-22T21:02:31.264Z,7.83
2019-04-22T21:04:58.163Z,7.72
2019-04-22T21:07:32.513Z,7.53
2019-04-22T21:10:10.531Z,8.40
2019-04-22T21:12:34.038Z,7.78
2019-04-22T21:15:19.382Z,7.92
2019-04-22T21:17:44.793Z,8.20
2019-04-22T21:20:21.650Z,8.35
2019-04-22T21:22:48.207Z,9.28
2019-04-22T21:25:15.613Z,9.20
2019-04-22T21:27:52.684Z,9.00
2019-04-22T21:30:19.460Z,9.28
2019-04-22T21:32:49.508Z,8.95
2019-04-22T21:35:40.576Z,9.25
2019-04-22T21:37:57.954Z,9.93
2019-04-22T21:40:28.343Z,9.83
2019-04-22T21:43:02.267Z,10.60
2019-04-22T21:45:25.235Z,10.90
2019-04-22T21:48:14.951Z,11.03
2019-04-22T21:50:48.236Z,10.85
2019-04-22T21:53:06.610Z,10.53
2019-04-22T21:55:43.698Z,11.48
2019-04-22T21:58:34.611Z,11.45
2019-04-22T22:01:03.996Z,12.23
2019-04-22T22:03:23.643Z,11.60
2019-04-22T22:05:45.949Z,12.18
2019-04-22T22:08:32.173Z,12.07
2019-04-22T22:10:57.972Z,12.45
2019-04-22T22:13:30.007Z,11.38
2019-04-22T22:15:58.118Z,11.88
2019-04-22T22:18:24.206Z,11.80
2019-04-22T22:21:20.915Z,12.30
2019-04-22T22:23:38.938Z,12.82
2019-04-22T22:26:02.398Z,11.97
2019-04-22T22:28:53.468Z,12.23
2019-04-22T22:31:15.503Z,11.80
2019-04-22T22:33:41.852Z,12.23
2019-04-22T22:36:08.647Z,12.75
2019-04-22T22:38:56.163Z,12.88
2019-04-22T22:41:12.016Z,12.35
2019-04-22T22:43:46.702Z,13.00
2019-04-22T22:46:26.961Z,13.00
2019-04-22T22:49:06.405Z,12.55
2019-04-22T22:51:45.172Z,13.05
2019-04-22T22:54:11.879Z,12.55
2019-04-22T22:56:47.442Z,13.35
2019-04-22T22:59:08.313Z,12.98
2019-04-22T23:01:39.552Z,12.50
2019-04-22T23:04:21.102Z,13.58
2019-04-22T23:06:48.388Z,12.70
2019-04-22T23:09:14.524Z,13.15
2019-04-22T23:14:16.714Z,12.60
2019-04-22T23:16:37.878Z,13.38
2019-04-22T23:19:06.456Z,12.88
2019-04-22T23:21:41.484Z,13.68
2019-04-22T23:24:28.269Z,13.35
2019-04-22T23:27:10.193Z,14.07
2019-04-22T23:29:44.747Z,13.78
2019-04-22T23:32:25.425Z,13.68
2019-04-22T23:35:10.441Z,13.20
2019-04-22T23:37:44.132Z,13.70
2019-04-22T23:40:22.070Z,13.35
2019-04-22T23:42:44.628Z,13.43
2019-04-22T23:45:15.979Z,14.25
2019-04-22T23:47:39.100Z,13.98
2019-04-22T23:50:24.444Z,13.68
2019-04-22T23:52:52.999Z,14.00
2019-04-22T23:55:25.956Z,13.72
2019-04-22T23:57:58.429Z,13.30
